createdAt,value
2019-01-19T00:00:12.449Z,16.67
2019-01-19T00:05:35.442Z,16.00
2019-01-19T00:10:44.466Z,16.63
2019-01-19T00:16:03.172Z,16.05
2019-01-19T00:21:14.924Z,16.70
2019-01-19T00:26:19.557Z,16.90
2019-01-19T00:31:27.121Z,16.60
2019-01-19T00:36:33.615Z,16.57
2019-01-19T00:41:42.965Z,16.67
2019-01-19T00:46:58.509Z,14.53
2019-01-19T00:52:19.659Z,16.70
2019-01-19T00:57:34.972Z,16.47
2019-01-19T01:02:39.604Z,15.63
2019-01-19T01:07:59.521Z,16.53
2019-01-19T01:13:04.153Z,15.67
2019-01-19T01:18:13.282Z,15.77
2019-01-19T01:23:30.103Z,15.47
2019-01-19T01:28:48.194Z,15.87
2019-01-19T01:34:15.678Z,16.40
2019-01-19T01:39:34.197Z,16.57
2019-01-19T01:44:46.493Z,16.47
2019-01-19T01:49:51.366Z,16.23
2019-01-19T01:54:55.985Z,15.00
2019-01-19T02:00:03.348Z,15.17
2019-01-19T02:05:28.007Z,16.87
2019-01-19T02:10:42.853Z,14.30
2019-01-19T02:15:50.426Z,15.27
2019-01-19T02:21:06.132Z,15.07
2019-01-19T02:26:29.098Z,15.97
2019-01-19T02:31:53.573Z,14.50
2019-01-19T02:37:00.871Z,15.38
2019-01-19T02:42:10.310Z,14.97
2019-01-19T02:47:14.953Z,14.73
2019-01-19T02:52:27.424Z,15.33
2019-01-19T02:57:32.063Z,14.43
2019-01-19T03:02:53.845Z,14.17
2019-01-19T03:08:06.786Z,14.67
2019-01-19T03:13:28.082Z,15.83
2019-01-19T03:18:37.177Z,14.57
2019-01-19T03:23:46.705Z,14.83
2019-01-19T03:28:51.332Z,13.83
2019-01-19T03:34:18.861Z,12.90
2019-01-19T03:39:40.358Z,14.87
2019-01-19T03:44:44.988Z,13.87
2019-01-19T03:49:52.297Z,13.57
2019-01-19T03:55:16.753Z,13.60
2019-01-19T04:00:24.282Z,13.10
2019-01-19T04:05:39.698Z,13.27
2019-01-19T04:11:06.274Z,12.93
2019-01-19T04:16:27.805Z,13.10
2019-01-19T04:21:34.307Z,12.27
2019-01-19T04:26:37.863Z,11.93
2019-01-19T04:31:41.289Z,12.07
2019-01-19T04:36:44.541Z,11.80
2019-01-19T04:41:47.975Z,10.83
2019-01-19T04:46:51.639Z,11.00
2019-01-19T04:51:55.060Z,10.87
2019-01-19T04:56:58.714Z,10.20
2019-01-19T05:02:01.794Z,10.20
2019-01-19T05:07:05.445Z,10.87
2019-01-19T05:12:08.850Z,10.47
2019-01-19T05:17:12.193Z,10.70
2019-01-19T05:22:15.618Z,10.27
2019-01-19T05:27:18.703Z,10.63
2019-01-19T05:32:22.479Z,11.27
2019-01-19T05:37:26.138Z,10.83
2019-01-19T05:42:29.234Z,11.20
2019-01-19T05:47:34.709Z,11.23
2019-01-19T05:52:37.884Z,12.20
2019-01-19T05:57:41.322Z,11.33
2019-01-19T06:02:44.802Z,10.63
2019-01-19T06:07:48.130Z,11.43
2019-01-19T06:12:51.555Z,11.70
2019-01-19T06:17:54.911Z,11.33
2019-01-19T06:22:58.067Z,11.93
2019-01-19T06:28:01.422Z,10.97
2019-01-19T06:33:05.001Z,10.37
2019-01-19T06:38:08.553Z,11.67
2019-01-19T06:43:11.634Z,10.80
2019-01-19T06:48:14.987Z,12.30
2019-01-19T06:53:18.307Z,10.90
2019-01-19T06:58:22.059Z,10.30
2019-01-19T07:03:25.485Z,10.30
2019-01-19T07:08:28.863Z,11.77
2019-01-19T07:13:32.066Z,10.63
2019-01-19T07:18:35.258Z,11.47
2019-01-19T07:23:38.359Z,11.73
2019-01-19T07:28:41.769Z,10.97
2019-01-19T07:33:45.437Z,12.47
2019-01-19T07:38:48.521Z,9.90
2019-01-19T07:43:52.197Z,9.93
2019-01-19T07:48:55.854Z,8.77
2019-01-19T07:54:18.280Z,9.60
2019-01-19T07:59:21.698Z,9.07
2019-01-19T08:04:25.181Z,9.20
2019-01-19T08:09:28.866Z,9.20
2019-01-19T08:14:32.323Z,9.10
2019-01-19T08:19:35.775Z,9.00
2019-01-19T08:24:39.101Z,8.83
2019-01-19T08:29:42.594Z,9.50
2019-01-19T08:34:46.673Z,8.70
2019-01-19T08:39:50.210Z,8.23
2019-01-19T08:44:54.047Z,8.80
2019-01-19T08:49:58.048Z,8.65
2019-01-19T08:55:01.487Z,8.83
2019-01-19T09:00:06.395Z,8.23
2019-01-19T09:05:11.057Z,8.40
2019-01-19T09:10:17.549Z,7.47
2019-01-19T09:15:21.916Z,7.53
2019-01-19T09:20:25.318Z,7.63
2019-01-19T09:25:28.398Z,7.63
2019-01-19T09:30:31.816Z,7.40
2019-01-19T09:35:35.518Z,8.20
2019-01-19T09:40:42.069Z,7.57
2019-01-19T09:45:46.358Z,7.73
2019-01-19T09:50:49.445Z,7.23
2019-01-19T09:55:52.926Z,6.83
2019-01-19T10:00:56.054Z,7.62
2019-01-19T10:05:59.462Z,6.80
2019-01-19T10:11:02.569Z,6.87
2019-01-19T10:16:06.321Z,6.93
2019-01-19T10:21:09.798Z,7.47
2019-01-19T10:26:13.452Z,7.80
2019-01-19T10:31:16.855Z,6.60
2019-01-19T10:36:20.013Z,7.47
2019-01-19T10:41:23.432Z,6.80
2019-01-19T10:46:27.146Z,6.60
2019-01-19T10:51:30.582Z,6.90
2019-01-19T10:56:34.250Z,6.23
2019-01-19T11:01:37.574Z,6.40
2019-01-19T11:06:40.994Z,6.50
2019-01-19T11:11:44.403Z,5.83
2019-01-19T11:16:47.482Z,6.20
2019-01-19T11:21:53.374Z,5.80
2019-01-19T11:26:56.781Z,6.10
2019-01-19T11:32:00.191Z,6.13
2019-01-19T11:37:03.273Z,5.63
2019-01-19T11:42:06.359Z,5.90
2019-01-19T11:47:09.847Z,5.87
2019-01-19T11:52:13.263Z,5.07
2019-01-19T11:57:16.354Z,5.50
2019-01-19T12:02:19.781Z,5.13
2019-01-19T12:07:22.878Z,5.40
2019-01-19T12:12:26.300Z,5.00
2019-01-19T12:17:29.629Z,4.90
2019-01-19T12:22:33.070Z,4.70
2019-01-19T12:27:36.763Z,5.40
2019-01-19T12:32:40.462Z,5.20
2019-01-19T12:37:44.263Z,5.20
2019-01-19T12:42:48.946Z,5.13
2019-01-19T12:47:52.041Z,4.70
2019-01-19T12:52:55.580Z,4.83
2019-01-19T12:57:58.670Z,4.63
2019-01-19T13:03:02.118Z,4.50
2019-01-19T13:08:06.781Z,4.50
2019-01-19T13:13:10.289Z,4.60
2019-01-19T13:18:29.914Z,4.27
2019-01-19T13:23:45.170Z,4.07
2019-01-19T13:29:06.263Z,3.80
2019-01-19T13:34:10.865Z,3.53
2019-01-19T13:39:20.192Z,3.80
2019-01-19T13:44:32.610Z,3.80
2019-01-19T13:49:48.217Z,3.80
2019-01-19T13:55:05.169Z,3.63
2019-01-19T14:00:23.800Z,3.43
2019-01-19T14:05:42.337Z,3.60
2019-01-19T14:10:46.999Z,3.80
2019-01-19T14:15:54.313Z,4.10
2019-01-19T14:21:14.369Z,4.00
2019-01-19T14:26:31.123Z,3.90
2019-01-19T14:31:38.931Z,3.77
2019-01-19T14:37:05.411Z,4.00
2019-01-19T14:42:29.904Z,3.57
2019-01-19T14:47:36.514Z,4.00
2019-01-19T14:52:53.371Z,3.60
2019-01-19T14:58:04.038Z,3.70
2019-01-19T15:03:16.565Z,3.90
2019-01-19T15:08:29.217Z,3.70
2019-01-19T15:13:46.067Z,4.07
2019-01-19T15:18:53.748Z,3.73
2019-01-19T15:24:12.091Z,3.70
2019-01-19T15:29:24.622Z,3.80
2019-01-19T15:34:32.298Z,3.73
2019-01-19T15:39:57.094Z,3.63
2019-01-19T15:45:04.867Z,3.73
2019-01-19T15:50:30.952Z,3.83
2019-01-19T15:55:49.363Z,3.85
2019-01-19T16:00:59.009Z,4.20
2019-01-19T16:06:17.908Z,4.10
2019-01-19T16:11:24.450Z,4.37
2019-01-19T16:16:49.117Z,4.87
2019-01-19T16:21:57.056Z,5.00
2019-01-19T16:27:18.473Z,5.20
2019-01-19T16:32:35.704Z,5.07
2019-01-19T16:37:40.651Z,5.73
2019-01-19T16:42:58.857Z,5.50
2019-01-19T16:48:05.543Z,5.20
2019-01-19T16:53:13.437Z,5.37
2019-01-19T16:58:25.953Z,5.60
2019-01-19T17:03:47.752Z,5.53
2019-01-19T17:09:11.198Z,5.70
2019-01-19T17:14:43.544Z,6.20
2019-01-19T17:19:54.413Z,5.93
2019-01-19T17:25:16.530Z,6.45
2019-01-19T17:30:40.845Z,7.47
2019-01-19T17:35:53.594Z,7.13
2019-01-19T17:41:03.133Z,7.20
2019-01-19T17:46:14.287Z,7.17
2019-01-19T17:51:35.513Z,6.47
2019-01-19T17:56:42.079Z,7.27
2019-01-19T18:02:25.538Z,8.07
2019-01-19T18:07:43.666Z,7.60
2019-01-19T18:13:06.686Z,7.97
2019-01-19T18:18:32.158Z,7.63
2019-01-19T18:23:48.837Z,7.20
2019-01-19T18:29:10.429Z,7.40
2019-01-19T18:34:17.874Z,7.83
2019-01-19T18:39:28.569Z,7.87
2019-01-19T18:44:46.500Z,7.60
2019-01-19T18:50:07.935Z,8.07
2019-01-19T18:55:47.926Z,8.10
2019-01-19T19:01:09.459Z,9.13
2019-01-19T19:06:23.291Z,8.03
2019-01-19T19:11:33.997Z,7.97
2019-01-19T19:16:54.866Z,7.60
2019-01-19T19:22:32.646Z,7.90
2019-01-19T19:27:43.259Z,7.70
2019-01-19T19:33:09.676Z,8.13
2019-01-19T19:38:28.260Z,8.63
2019-01-19T19:43:41.007Z,8.63
2019-01-19T19:48:48.875Z,8.23
2019-01-19T19:53:52.078Z,9.00
2019-01-19T19:58:55.828Z,7.37
2019-01-19T20:03:59.646Z,8.30
2019-01-19T20:09:02.910Z,9.00
2019-01-19T20:14:06.514Z,8.23
2019-01-19T20:19:09.666Z,9.23
2019-01-19T20:24:12.811Z,8.93
2019-01-19T20:29:16.272Z,8.37
2019-01-19T20:34:19.997Z,8.90
2019-01-19T20:39:23.529Z,8.83
2019-01-19T20:44:26.833Z,9.23
2019-01-19T20:49:30.184Z,8.40
2019-01-19T20:54:33.624Z,9.37
2019-01-19T20:59:37.099Z,8.17
2019-01-19T21:04:41.459Z,9.10
2019-01-19T21:09:44.595Z,8.33
2019-01-19T21:14:48.391Z,8.23
2019-01-19T21:19:51.848Z,8.87
2019-01-19T21:24:55.629Z,9.00
2019-01-19T21:29:58.772Z,9.70
2019-01-19T21:35:01.866Z,9.00
2019-01-19T21:40:06.799Z,9.30
2019-01-19T21:45:13.818Z,8.90
2019-01-19T21:50:17.310Z,9.33
2019-01-19T21:55:20.446Z,8.67
2019-01-19T22:00:23.841Z,9.50
2019-01-19T22:05:27.255Z,8.90
2019-01-19T22:10:30.684Z,9.40
2019-01-19T22:15:34.343Z,9.50
2019-01-19T22:20:37.692Z,11.08
2019-01-19T22:25:41.076Z,10.80
2019-01-19T22:30:44.830Z,10.20
2019-01-19T22:35:48.241Z,9.20
2019-01-19T22:40:53.767Z,9.07
2019-01-19T22:45:56.816Z,9.78
2019-01-19T22:50:59.906Z,9.50
2019-01-19T22:56:02.981Z,9.97
2019-01-19T23:01:11.978Z,9.37
2019-01-19T23:06:15.386Z,9.20
2019-01-19T23:11:18.475Z,8.90
2019-01-19T23:16:21.889Z,9.13
2019-01-19T23:21:25.634Z,9.30
2019-01-19T23:26:29.368Z,9.40
2019-01-19T23:31:33.110Z,10.70
2019-01-19T23:36:36.205Z,10.30
2019-01-19T23:41:39.298Z,10.27
2019-01-19T23:46:42.703Z,9.53
2019-01-19T23:51:46.123Z,9.83
2019-01-19T23:56:49.216Z,10.20
